createdAt,value
2023-02-20T00:01:33.635Z,-7.06
2023-02-20T00:06:35.608Z,-7.02
2023-02-20T00:11:37.591Z,-7.04
2023-02-20T00:16:39.441Z,-7.14
2023-02-20T00:21:48.241Z,-7.14
2023-02-20T00:26:51.257Z,-7.09
2023-02-20T00:31:57.069Z,-7.16
2023-02-20T00:36:58.904Z,-7.27
2023-02-20T00:42:00.897Z,-7.34
2023-02-20T00:47:02.859Z,-7.35
2023-02-20T00:52:04.846Z,-7.41
2023-02-20T00:57:06.709Z,-7.37
2023-02-20T01:02:08.641Z,-7.44
2023-02-20T01:07:10.586Z,-7.54
2023-02-20T01:12:12.512Z,-7.62
2023-02-20T01:17:14.363Z,-7.63
2023-02-20T01:22:16.199Z,-7.64
2023-02-20T01:27:18.129Z,-7.72
2023-02-20T01:32:20.027Z,-7.68
2023-02-20T01:37:21.884Z,-7.66
2023-02-20T01:42:24.713Z,-7.61
2023-02-20T01:47:26.550Z,-7.54
2023-02-20T01:52:29.733Z,-7.52
2023-02-20T01:57:33.256Z,-7.45
2023-02-20T02:02:35.484Z,-7.29
2023-02-20T02:07:37.356Z,-7.24
2023-02-20T02:12:39.278Z,-7.26
2023-02-20T02:18:10.918Z,-7.29
2023-02-20T02:23:34.598Z,-7.21
2023-02-20T02:28:46.715Z,-7.16
2023-02-20T02:34:09.752Z,-7.08
2023-02-20T02:39:36.163Z,-7.17
2023-02-20T02:44:52.896Z,-7.33
2023-02-20T02:50:18.842Z,-7.27
2023-02-20T02:55:26.171Z,-7.34
2023-02-20T03:00:43.945Z,-7.35
2023-02-20T03:05:56.270Z,-7.33
2023-02-20T03:11:00.348Z,-7.51
2023-02-20T03:16:02.101Z,-7.30
2023-02-20T03:21:09.501Z,-7.29
2023-02-20T03:26:14.428Z,-7.23
2023-02-20T03:31:37.698Z,-7.14
2023-02-20T03:36:59.884Z,-7.15
2023-02-20T03:42:01.642Z,-7.18
2023-02-20T03:47:03.416Z,-7.18
2023-02-20T03:52:05.268Z,-7.12
2023-02-20T03:57:30.687Z,-7.08
2023-02-20T04:02:36.430Z,-7.35
2023-02-20T04:07:48.356Z,-7.40
2023-02-20T04:12:50.138Z,-7.51
2023-02-20T04:17:55.380Z,-7.46
2023-02-20T04:22:58.646Z,-7.47
2023-02-20T04:28:00.478Z,-7.31
2023-02-20T04:33:02.301Z,-7.32
2023-02-20T04:38:04.147Z,-7.16
2023-02-20T04:43:05.972Z,-7.12
2023-02-20T04:48:07.774Z,-7.09
2023-02-20T04:53:09.553Z,-7.00
2023-02-20T04:58:11.393Z,-7.04
2023-02-20T05:03:13.189Z,-7.20
2023-02-20T05:08:14.939Z,-7.32
2023-02-20T05:13:16.749Z,-7.27
2023-02-20T05:18:28.216Z,-7.41
2023-02-20T05:23:30.015Z,-7.33
2023-02-20T05:28:32.123Z,-7.42
2023-02-20T05:33:33.972Z,-7.51
2023-02-20T05:38:35.762Z,-7.49
2023-02-20T05:43:37.566Z,-7.50
2023-02-20T05:48:39.360Z,-7.40
2023-02-20T05:53:41.355Z,-7.42
2023-02-20T05:58:44.270Z,-7.18
2023-02-20T06:03:46.598Z,-7.19
2023-02-20T06:08:48.544Z,-7.15
2023-02-20T06:13:50.436Z,-7.19
2023-02-20T06:18:52.407Z,-7.10
2023-02-20T06:23:55.003Z,-6.94
2023-02-20T06:28:56.858Z,-7.06
2023-02-20T06:33:58.624Z,-6.93
2023-02-20T06:39:00.479Z,-6.85
2023-02-20T06:44:02.497Z,-6.79
2023-02-20T06:49:04.393Z,-6.70
2023-02-20T06:54:06.772Z,-6.61
2023-02-20T06:59:08.637Z,-6.48
2023-02-20T07:04:21.550Z,-6.48
2023-02-20T07:09:23.234Z,-6.39
2023-02-20T07:14:24.988Z,-6.45
2023-02-20T07:19:26.862Z,-6.48
2023-02-20T07:24:28.854Z,-6.31
2023-02-20T07:29:30.758Z,-5.83
2023-02-20T07:34:32.648Z,-5.59
2023-02-20T07:39:34.607Z,-5.47
2023-02-20T07:44:36.628Z,-5.44
2023-02-20T07:49:38.558Z,-5.37
2023-02-20T07:54:40.830Z,-5.01
2023-02-20T07:59:42.747Z,-4.80
2023-02-20T08:04:44.628Z,-4.73
2023-02-20T08:09:49.709Z,-4.93
2023-02-20T08:14:51.630Z,-4.88
2023-02-20T08:19:53.650Z,-4.86
2023-02-20T08:24:55.754Z,-4.49
2023-02-20T08:29:58.073Z,-4.29
2023-02-20T08:35:00.192Z,-3.85
2023-02-20T08:40:02.117Z,-3.70
2023-02-20T08:45:05.624Z,-4.05
2023-02-20T08:50:07.345Z,-4.42
2023-02-20T08:55:09.462Z,-4.14
2023-02-20T09:00:12.325Z,-4.25
2023-02-20T09:05:15.527Z,-4.22
2023-02-20T09:10:20.745Z,-4.43
2023-02-20T09:15:22.787Z,-4.03
2023-02-20T09:20:24.724Z,-4.32
2023-02-20T09:25:26.722Z,-4.70
2023-02-20T09:30:28.683Z,-4.84
2023-02-20T09:35:31.078Z,-4.79
2023-02-20T09:40:33.015Z,-5.01
2023-02-20T09:45:35.082Z,-4.90
2023-02-20T09:50:53.986Z,-4.69
2023-02-20T09:55:56.057Z,-4.63
2023-02-20T10:00:59.123Z,-4.55
2023-02-20T10:06:01.087Z,-4.44
2023-02-20T10:11:03.510Z,-4.21
2023-02-20T10:16:23.199Z,-4.56
2023-02-20T10:21:41.602Z,-4.97
2023-02-20T10:26:47.844Z,-5.23
2023-02-20T10:32:08.484Z,-4.95
2023-02-20T10:37:20.853Z,-4.75
2023-02-20T10:42:48.590Z,-4.74
2023-02-20T10:47:53.346Z,-4.10
2023-02-20T10:53:15.802Z,-4.42
2023-02-20T10:58:29.146Z,-4.38
2023-02-20T11:03:57.788Z,-4.48
2023-02-20T11:08:59.618Z,-4.79
2023-02-20T11:14:02.591Z,-5.17
2023-02-20T11:19:22.081Z,-5.05
2023-02-20T11:24:23.954Z,-5.02
2023-02-20T11:29:25.837Z,-4.22
2023-02-20T11:34:27.872Z,-3.95
2023-02-20T11:39:30.094Z,-4.10
2023-02-20T11:44:32.078Z,-4.33
2023-02-20T11:49:33.942Z,-4.81
2023-02-20T11:54:35.864Z,-4.42
2023-02-20T11:59:38.460Z,-4.53
2023-02-20T12:04:40.200Z,-4.63
2023-02-20T12:09:42.053Z,-4.79
2023-02-20T12:14:43.918Z,-4.61
2023-02-20T12:20:03.914Z,-4.76
2023-02-20T12:25:28.038Z,-4.99
2023-02-20T12:31:04.098Z,-4.98
2023-02-20T12:36:41.880Z,-5.21
2023-02-20T12:41:52.707Z,-5.50
2023-02-20T12:47:15.872Z,-5.16
2023-02-20T12:52:29.355Z,-5.08
2023-02-20T12:57:38.298Z,-5.22
2023-02-20T13:02:45.592Z,-5.27
2023-02-20T13:07:48.045Z,-5.42
2023-02-20T13:12:50.775Z,-5.32
2023-02-20T13:18:05.912Z,-5.24
2023-02-20T13:23:16.679Z,-5.17
2023-02-20T13:28:24.266Z,-5.34
2023-02-20T13:33:28.830Z,-5.34
2023-02-20T13:38:30.853Z,-5.64
2023-02-20T13:43:36.987Z,-5.85
2023-02-20T13:48:41.228Z,-5.92
2023-02-20T13:53:47.911Z,-6.08
2023-02-20T13:58:50.242Z,-6.15
2023-02-20T14:04:05.214Z,-6.18
2023-02-20T14:09:20.645Z,-6.31
2023-02-20T14:14:32.695Z,-6.29
2023-02-20T14:19:35.395Z,-6.27
2023-02-20T14:24:37.372Z,-6.23
2023-02-20T14:29:39.307Z,-6.18
2023-02-20T14:34:53.186Z,-6.23
2023-02-20T14:40:12.199Z,-6.26
2023-02-20T14:45:23.202Z,-6.34
2023-02-20T14:50:33.039Z,-6.39
2023-02-20T14:55:35.070Z,-6.41
2023-02-20T15:00:38.726Z,-6.50
2023-02-20T15:05:41.657Z,-6.71
2023-02-20T15:10:45.542Z,-6.78
2023-02-20T15:15:49.279Z,-7.22
2023-02-20T15:20:51.134Z,-6.99
2023-02-20T15:25:53.065Z,-7.16
2023-02-20T15:31:10.171Z,-7.26
2023-02-20T15:36:13.897Z,-7.15
2023-02-20T15:41:16.088Z,-7.16
2023-02-20T15:46:18.097Z,-7.28
2023-02-20T15:51:21.357Z,-7.37
2023-02-20T15:56:23.275Z,-7.21
2023-02-20T16:01:25.305Z,-7.23
2023-02-20T16:06:27.347Z,-7.26
2023-02-20T16:11:43.498Z,-7.34
2023-02-20T16:16:46.798Z,-7.33
2023-02-20T16:21:58.572Z,-7.20
2023-02-20T16:27:01.360Z,-7.43
2023-02-20T16:32:03.163Z,-7.65
2023-02-20T16:37:05.243Z,-7.63
2023-02-20T16:42:35.396Z,-7.65
2023-02-20T16:47:37.259Z,-7.49
2023-02-20T16:52:40.262Z,-7.66
2023-02-20T16:57:42.268Z,-7.79
2023-02-20T17:02:44.331Z,-7.71
2023-02-20T17:07:46.316Z,-7.81
2023-02-20T17:12:48.304Z,-7.85
2023-02-20T17:17:50.772Z,-7.80
2023-02-20T17:23:03.875Z,-7.90
2023-02-20T17:28:06.599Z,-7.97
2023-02-20T17:33:08.582Z,-8.14
2023-02-20T17:38:10.548Z,-8.06
2023-02-20T17:43:12.545Z,-8.18
2023-02-20T17:48:14.463Z,-8.18
2023-02-20T17:53:16.488Z,-8.20
2023-02-20T17:58:18.512Z,-8.13
2023-02-20T18:03:20.454Z,-8.12
2023-02-20T18:08:22.521Z,-8.28
2023-02-20T18:13:24.576Z,-8.52
2023-02-20T18:18:26.547Z,-8.81
2023-02-20T18:23:28.485Z,-9.18
2023-02-20T18:28:30.409Z,-9.22
2023-02-20T18:33:32.305Z,-9.16
2023-02-20T18:38:34.306Z,-9.03
2023-02-20T18:43:36.231Z,-9.19
2023-02-20T18:48:38.170Z,-9.15
2023-02-20T18:53:40.018Z,-9.29
2023-02-20T18:58:41.995Z,-9.22
2023-02-20T19:03:43.972Z,-9.57
2023-02-20T19:08:45.815Z,-9.69
2023-02-20T19:13:47.808Z,-9.71
2023-02-20T19:18:50.962Z,-9.90
2023-02-20T19:23:53.057Z,-10.04
2023-02-20T19:28:54.874Z,-10.02
2023-02-20T19:33:56.713Z,-10.07
2023-02-20T19:38:58.611Z,-10.02
2023-02-20T19:44:00.615Z,-10.11
2023-02-20T19:49:02.522Z,-10.23
2023-02-20T19:54:04.476Z,-10.28
2023-02-20T19:59:06.421Z,-10.36
2023-02-20T20:04:08.316Z,-10.36
2023-02-20T20:09:16.650Z,-10.39
2023-02-20T20:14:20.736Z,-10.41
2023-02-20T20:19:22.613Z,-10.38
2023-02-20T20:24:24.507Z,-10.57
2023-02-20T20:29:26.405Z,-10.74
2023-02-20T20:34:28.377Z,-10.77
2023-02-20T20:39:30.299Z,-10.71
2023-02-20T20:44:32.207Z,-10.63
2023-02-20T20:49:34.188Z,-10.85
2023-02-20T20:54:36.101Z,-11.12
2023-02-20T20:59:40.469Z,-11.28
2023-02-20T21:04:42.797Z,-11.34
2023-02-20T21:09:44.668Z,-11.31
2023-02-20T21:14:46.807Z,-11.42
2023-02-20T21:19:48.490Z,-11.42
2023-02-20T21:24:50.376Z,-11.46
2023-02-20T21:29:52.341Z,-11.53
2023-02-20T21:34:55.533Z,-11.71
2023-02-20T21:39:59.802Z,-11.69
2023-02-20T21:45:01.948Z,-11.76
2023-02-20T21:50:06.069Z,-11.72
2023-02-20T21:55:10.150Z,-11.71
2023-02-20T22:00:13.019Z,-11.79
2023-02-20T22:05:14.959Z,-11.79
2023-02-20T22:10:16.778Z,-11.95
2023-02-20T22:15:18.792Z,-12.00
2023-02-20T22:20:20.487Z,-12.03
2023-02-20T22:25:22.378Z,-12.12
2023-02-20T22:30:24.316Z,-12.14
2023-02-20T22:35:26.057Z,-12.21
2023-02-20T22:40:27.948Z,-12.21
2023-02-20T22:45:29.818Z,-12.16
2023-02-20T22:50:31.706Z,-12.11
2023-02-20T22:55:33.565Z,-12.10
2023-02-20T23:00:35.576Z,-12.07
2023-02-20T23:05:37.288Z,-12.01
2023-02-20T23:10:39.199Z,-12.07
2023-02-20T23:15:41.162Z,-11.98
2023-02-20T23:20:43.050Z,-12.07
2023-02-20T23:25:45.034Z,-12.02
2023-02-20T23:30:46.907Z,-11.98
2023-02-20T23:35:48.807Z,-11.96
2023-02-20T23:40:50.648Z,-11.97
2023-02-20T23:45:52.729Z,-12.02
2023-02-20T23:50:54.426Z,-12.05
2023-02-20T23:55:56.231Z,-12.10
